createdAt,value
2023-07-21T00:08:46.573Z,6.00
2023-07-21T00:19:10.975Z,7.50
2023-07-21T00:29:55.502Z,6.90
2023-07-21T00:40:00.160Z,7.90
2023-07-21T00:50:04.487Z,6.80
2023-07-21T01:00:14.278Z,6.80
2023-07-21T01:10:27.025Z,8.20
2023-07-21T01:21:32.702Z,8.30
2023-07-21T01:32:17.167Z,7.10
2023-07-21T01:43:22.067Z,5.90
2023-07-21T01:54:06.926Z,5.30
2023-07-21T02:05:14.162Z,5.80
2023-07-21T02:16:21.699Z,6.10
2023-07-21T02:27:26.143Z,6.20
2023-07-21T02:39:31.550Z,6.40
2023-07-21T02:50:36.300Z,6.90
2023-07-21T03:00:42.090Z,14.10
2023-07-21T03:11:01.871Z,5.60
2023-07-21T03:21:07.585Z,5.30
2023-07-21T03:31:13.349Z,5.00
2023-07-21T03:42:30.424Z,4.50
2023-07-21T03:53:36.746Z,4.30
2023-07-21T04:04:04.898Z,5.40
2023-07-21T04:14:14.778Z,5.70
2023-07-21T04:24:18.752Z,4.00
2023-07-21T04:34:29.292Z,3.70
2023-07-21T04:44:33.828Z,3.80
2023-07-21T04:54:39.963Z,3.60
2023-07-21T05:04:45.674Z,7.00
2023-07-21T05:14:59.030Z,1.90
2023-07-21T05:25:18.736Z,1.50
2023-07-21T05:35:43.025Z,2.10
2023-07-21T05:46:08.108Z,2.30
2023-07-21T05:56:47.701Z,2.10
2023-07-21T06:08:32.583Z,2.70
2023-07-21T06:19:05.329Z,2.70
2023-07-21T06:29:18.534Z,4.80
2023-07-21T06:39:42.660Z,4.10
2023-07-21T06:50:03.151Z,3.10
2023-07-21T07:00:09.723Z,4.90
2023-07-21T07:10:13.926Z,3.30
2023-07-21T07:20:18.209Z,3.30
2023-07-21T07:31:22.610Z,2.90
2023-07-21T07:41:46.540Z,2.90
2023-07-21T07:52:51.388Z,2.80
2023-07-21T08:03:38.673Z,3.00
2023-07-21T08:14:23.250Z,3.20
2023-07-21T08:24:27.367Z,2.90
2023-07-21T08:35:12.313Z,3.50
2023-07-21T08:46:17.009Z,3.30
2023-07-21T08:56:41.246Z,3.00
2023-07-21T09:06:59.748Z,2.40
2023-07-21T09:18:07.436Z,3.10
2023-07-21T09:28:59.926Z,2.40
2023-07-21T09:39:24.246Z,1.80
2023-07-21T09:50:28.810Z,2.20
2023-07-21T10:00:55.676Z,2.30
2023-07-21T10:11:19.718Z,2.30
2023-07-21T10:21:54.647Z,2.80
2023-07-21T10:32:59.290Z,2.20
2023-07-21T10:43:23.411Z,2.40
2023-07-21T10:53:42.760Z,2.20
2023-07-21T11:03:52.447Z,2.20
2023-07-21T11:14:42.449Z,1.80
2023-07-21T11:25:11.283Z,2.20
2023-07-21T11:35:34.289Z,2.20
2023-07-21T11:46:00.043Z,3.00
2023-07-21T11:56:07.108Z,2.00
2023-07-21T12:07:11.731Z,2.20
2023-07-21T12:18:05.831Z,1.70
2023-07-21T12:28:10.111Z,1.60
2023-07-21T12:39:14.788Z,2.20
2023-07-21T12:49:19.434Z,2.60
2023-07-21T13:00:23.867Z,3.50
2023-07-21T13:11:08.630Z,2.70
2023-07-21T13:21:13.024Z,2.20
2023-07-21T13:31:20.881Z,2.10
2023-07-21T13:42:26.400Z,2.20
2023-07-21T13:53:10.842Z,1.90
2023-07-21T14:04:15.622Z,1.80
2023-07-21T14:14:22.270Z,1.50
2023-07-21T14:24:38.174Z,2.70
2023-07-21T14:34:45.489Z,1.40
2023-07-21T14:45:29.934Z,5.60
2023-07-21T14:55:36.716Z,2.60
2023-07-21T15:05:41.044Z,2.20
2023-07-21T15:15:45.411Z,2.00
2023-07-21T15:25:50.590Z,3.10
2023-07-21T15:36:34.923Z,2.10
2023-07-21T15:47:19.195Z,2.80
2023-07-21T15:57:25.949Z,3.10
2023-07-21T16:07:29.895Z,2.60
2023-07-21T16:18:03.249Z,2.00
2023-07-21T16:28:07.426Z,2.60
2023-07-21T16:38:12.330Z,3.50
2023-07-21T16:48:16.482Z,2.90
2023-07-21T16:58:22.880Z,2.50
2023-07-21T17:08:26.774Z,3.90
2023-07-21T17:18:33.965Z,4.50
2023-07-21T17:28:40.825Z,3.10
2023-07-21T17:39:28.502Z,3.30
2023-07-21T17:49:32.380Z,3.00
2023-07-21T17:59:36.249Z,6.90
2023-07-21T18:10:20.690Z,3.20
2023-07-21T18:21:08.312Z,3.40
2023-07-21T18:31:12.389Z,3.00
2023-07-21T18:41:19.707Z,3.60
2023-07-21T18:52:03.952Z,5.70
2023-07-21T19:02:08.051Z,6.40
2023-07-21T19:12:17.764Z,6.60
2023-07-21T19:23:02.167Z,6.40
2023-07-21T19:33:06.653Z,5.30
2023-07-21T19:43:10.732Z,4.80
2023-07-21T19:53:15.468Z,4.80
2023-07-21T20:03:59.760Z,8.80
2023-07-21T20:14:03.708Z,11.10
2023-07-21T20:24:07.643Z,11.20
2023-07-21T20:34:11.578Z,9.10
2023-07-21T20:45:16.086Z,9.70
2023-07-21T20:56:20.327Z,6.20
2023-07-21T21:06:25.154Z,5.20
2023-07-21T21:17:30.039Z,4.30
2023-07-21T21:27:35.136Z,4.90
2023-07-21T21:38:19.334Z,4.10
2023-07-21T21:48:24.809Z,5.20
2023-07-21T21:58:33.556Z,4.50
2023-07-21T22:08:47.179Z,4.90
2023-07-21T22:18:51.342Z,4.50
2023-07-21T22:29:16.003Z,4.80
2023-07-21T22:40:00.363Z,5.10
2023-07-21T22:51:05.079Z,4.40
2023-07-21T23:01:58.407Z,5.10
2023-07-21T23:12:03.044Z,4.90
2023-07-21T23:22:07.018Z,4.30
2023-07-21T23:33:11.527Z,3.90
2023-07-21T23:44:16.093Z,4.90
2023-07-21T23:54:19.830Z,5.10
